Time;durP1;ratioP1;P1;durP2;ratioP2;P2;SDS_P1;SDS_P2;PMS_P1;PMS_P2;Temp;Humidity;BMP_temperature;BMP_pressure;BME280_temperature;BME280_humidity;BME280_pressure;Samples;Min_cycle;Max_cycle;Signal;HPM_P1;HPM_P2
2022/02/24 00:02:27;;;;;;;10.88;5.13;;;3.20;98.00;;;;;;5107905;28;20050;-33
2022/02/24 00:05:00;;;;;;;14.65;8.10;;;3.20;98.00;;;;;;5122455;28;20313;-33
2022/02/24 00:07:32;;;;;;;12.65;5.15;;;3.20;98.20;;;;;;5135191;28;20042;-33
2022/02/24 00:10:08;;;;;;;12.73;5.57;;;3.40;98.10;;;;;;5125134;28;20058;-33
2022/02/24 00:12:41;;;;;;;10.95;5.50;;;3.20;98.30;;;;;;5130860;28;20054;-33
2022/02/24 00:15:13;;;;;;;9.63;5.53;;;3.20;98.00;;;;;;5116401;28;20748;-33
2022/02/24 00:17:47;;;;;;;11.43;5.80;;;3.20;98.30;;;;;;5141526;28;20073;-33
2022/02/24 00:20:20;;;;;;;10.57;5.57;;;3.20;98.70;;;;;;5121788;28;20635;-33
2022/02/24 00:22:52;;;;;;;12.80;5.95;;;2.00;98.60;;;;;;5103341;28;20497;-33
2022/02/24 00:34:40;;;;;;;13.60;6.25;;;3.20;99.20;;;;;;5095633;28;20859;-33
2022/02/24 00:40:47;;;;;;;11.60;6.15;;;3.10;99.80;;;;;;5122168;28;20047;-33
2022/02/24 00:43:20;;;;;;;11.43;5.28;;;3.10;99.80;;;;;;5125127;28;20047;-33
2022/02/24 00:45:52;;;;;;;8.02;4.78;;;3.10;99.90;;;;;;5135916;28;20046;-33
2022/02/24 00:48:25;;;;;;;8.13;5.00;;;3.10;99.90;;;;;;5139252;28;21149;-33
2022/02/24 00:50:58;;;;;;;7.55;4.80;;;3.20;99.90;;;;;;5129672;28;20530;-33
2022/02/24 00:53:30;;;;;;;13.27;5.15;;;3.20;99.90;;;;;;5122613;28;20057;-33
2022/02/24 00:56:03;;;;;;;7.28;4.28;;;3.20;99.90;;;;;;5129291;28;20050;-33
2022/02/24 00:58:36;;;;;;;6.53;3.90;;;3.30;99.90;;;;;;5117500;28;20589;-33
2022/02/24 01:01:08;;;;;;;8.60;3.60;;;3.40;99.90;;;;;;5123270;28;20455;-33
2022/02/24 01:03:41;;;;;;;11.03;4.13;;;3.40;99.90;;;;;;5116244;28;20057;-33
2022/02/24 01:06:13;;;;;;;8.40;4.07;;;3.50;99.90;;;;;;5127604;28;20045;-33
2022/02/24 01:08:46;;;;;;;8.57;4.70;;;3.50;99.90;;;;;;5103280;28;20759;-33
2022/02/24 01:11:18;;;;;;;6.20;3.40;;;3.60;99.90;;;;;;5111744;28;20046;-33
2022/02/24 01:13:51;;;;;;;6.63;3.83;;;3.60;99.90;;;;;;5114197;28;20364;-33
2022/02/24 01:16:23;;;;;;;8.98;4.78;;;3.60;99.90;;;;;;5108002;28;20042;-33
2022/02/24 01:18:57;;;;;;;7.32;4.38;;;3.60;99.90;;;;;;5102503;28;20727;-33
2022/02/24 01:21:29;;;;;;;6.60;4.43;;;3.70;99.90;;;;;;5107332;28;20047;-33
2022/02/24 01:24:02;;;;;;;7.50;3.95;;;3.70;99.90;;;;;;5124626;28;20282;-33
2022/02/24 01:26:35;;;;;;;11.48;5.00;;;3.70;99.90;;;;;;5126692;28;20062;-33
2022/02/24 01:29:07;;;;;;;10.75;5.93;;;3.80;99.90;;;;;;5111986;28;20043;-33
2022/02/24 01:31:40;;;;;;;8.57;5.10;;;3.70;99.90;;;;;;5113124;28;20061;-33
2022/02/24 01:34:13;;;;;;;10.63;5.88;;;3.70;99.90;;;;;;5095691;28;20607;-33
2022/02/24 01:36:46;;;;;;;13.90;5.03;;;3.80;99.90;;;;;;5097636;28;20872;-34
2022/02/24 01:39:19;;;;;;;9.00;4.50;;;3.80;99.90;;;;;;5089689;28;20769;-33
2022/02/24 01:41:52;;;;;;;7.25;4.03;;;3.80;99.90;;;;;;5105679;28;20057;-32
2022/02/24 01:44:24;;;;;;;9.40;4.50;;;3.40;99.90;;;;;;5142241;23;20045;-82
2022/02/24 01:46:57;;;;;;;7.85;4.32;;;3.40;99.90;;;;;;5171117;28;21166;-82
2022/02/24 01:49:29;;;;;;;8.23;4.78;;;4.60;99.90;;;;;;5156100;28;20044;-82
2022/02/24 01:52:07;;;;;;;7.32;4.43;;;3.70;99.90;;;;;;5152936;28;20049;-82
2022/02/24 01:54:40;;;;;;;6.28;4.07;;;3.80;99.90;;;;;;5168856;28;20475;-83
2022/02/24 01:57:13;;;;;;;5.82;3.90;;;3.80;99.90;;;;;;5141387;28;20055;-82
2022/02/24 01:59:46;;;;;;;7.40;4.15;;;3.60;99.90;;;;;;5151760;28;20641;-81
2022/02/24 02:02:19;;;;;;;6.25;3.88;;;3.80;99.90;;;;;;5166814;28;20052;-82
2022/02/24 02:04:53;;;;;;;5.95;3.65;;;;;;;;;;5157210;28;20053;-82
2022/02/24 02:07:27;;;;;;;7.32;4.25;;;3.70;99.90;;;;;;5172294;28;20420;-82
2022/02/24 02:10:00;;;;;;;8.23;4.50;;;1.60;99.90;;;;;;5159662;28;20049;-82
2022/02/24 02:12:48;;;;;;;6.60;4.15;;;3.70;99.90;;;;;;5172835;28;20049;-81
2022/02/24 02:15:21;;;;;;;6.90;3.92;;;2.40;99.90;;;;;;5145290;28;20041;-82
2022/02/24 02:17:54;;;;;;;6.30;3.83;;;3.60;99.90;;;;;;5166586;28;20135;-82
2022/02/24 02:20:27;;;;;;;5.43;3.53;;;;;;;;;;5139049;28;20045;-82
2022/02/24 02:22:59;;;;;;;5.50;3.20;;;4.90;99.90;;;;;;5172333;28;20045;-81
2022/02/24 02:25:31;;;;;;;6.30;3.67;;;3.50;99.90;;;;;;5162626;28;20051;-81
2022/02/24 02:28:04;;;;;;;6.78;4.03;;;4.30;99.90;;;;;;5167153;28;20045;-81
2022/02/24 02:30:37;;;;;;;5.93;3.87;;;3.40;99.90;;;;;;5174772;28;20036;-82
2022/02/24 02:33:10;;;;;;;7.72;3.83;;;3.40;99.90;;;;;;5141713;28;20315;-81
2022/02/24 02:35:44;;;;;;;6.75;3.65;;;3.40;99.90;;;;;;5145454;28;21785;-82
2022/02/24 02:38:17;;;;;;;7.30;3.58;;;;;;;;;;5144255;28;20053;-81
2022/02/24 02:40:50;;;;;;;6.53;3.28;;;;;;;;;;5124948;28;20956;-82
2022/02/24 02:43:23;;;;;;;5.53;3.70;;;1.90;99.90;;;;;;5155729;28;20041;-82
2022/02/24 02:45:55;;;;;;;6.18;3.40;;;4.20;99.90;;;;;;5151625;28;21914;-82
2022/02/24 02:48:28;;;;;;;5.30;3.40;;;4.80;99.90;;;;;;5139383;28;20053;-82
2022/02/24 02:51:00;;;;;;;7.13;3.72;;;2.30;99.90;;;;;;5161231;28;20056;-83
2022/02/24 02:53:33;;;;;;;5.38;3.17;;;;;;;;;;5139528;28;20061;-82
2022/02/24 02:56:06;;;;;;;5.57;2.80;;;3.80;99.90;;;;;;5139746;28;20049;-81
2022/02/24 02:58:38;;;;;;;5.97;3.40;;;2.00;99.90;;;;;;5140248;28;20509;-82
2022/02/24 03:01:11;;;;;;;5.82;3.35;;;3.20;99.90;;;;;;5140273;28;20044;-83
2022/02/24 03:03:44;;;;;;;4.57;2.95;;;3.20;99.90;;;;;;5139089;28;20045;-82
2022/02/24 03:06:17;;;;;;;3.50;2.70;;;3.20;99.90;;;;;;5130471;28;20993;-83
2022/02/24 03:08:49;;;;;;;4.40;2.80;;;3.40;99.90;;;;;;5148173;28;20057;-82
2022/02/24 03:11:22;;;;;;;4.18;2.90;;;3.80;99.90;;;;;;5150819;28;20501;-82
2022/02/24 03:13:54;;;;;;;4.07;2.90;;;4.60;99.90;;;;;;5145018;28;20548;-83
2022/02/24 03:16:27;;;;;;;4.38;2.97;;;4.20;99.90;;;;;;5137123;28;20057;-82
2022/02/24 03:19:00;;;;;;;3.83;3.13;;;2.70;99.90;;;;;;5147376;28;20048;-82
2022/02/24 03:21:32;;;;;;;4.28;2.90;;;4.50;99.90;;;;;;5134009;28;20049;-82
2022/02/24 03:24:06;;;;;;;4.50;2.97;;;4.80;99.90;;;;;;5142517;28;20049;-83
2022/02/24 03:26:43;;;;;;;4.95;2.83;;;5.50;99.90;;;;;;5170502;28;20067;-83
2022/02/24 03:29:16;;;;;;;4.30;2.70;;;2.60;99.90;;;;;;5133186;28;20049;-81
2022/02/24 03:31:48;;;;;;;3.63;2.42;;;2.90;99.90;;;;;;5166910;28;20053;-83
2022/02/24 03:34:21;;;;;;;2.97;2.33;;;3.90;99.90;;;;;;5166163;28;20054;-83
2022/02/24 03:36:53;;;;;;;4.47;2.28;;;2.50;99.90;;;;;;5129046;28;20409;-83
2022/02/24 03:39:26;;;;;;;3.45;2.28;;;4.10;99.90;;;;;;5179383;28;20060;-83
2022/02/24 03:41:58;;;;;;;4.45;2.72;;;;;;;;;;5158584;28;20050;-82
2022/02/24 03:44:31;;;;;;;5.10;2.67;;;;;;;;;;5140811;28;20259;-82
2022/02/24 03:47:04;;;;;;;3.50;2.57;;;2.90;99.90;;;;;;5178804;28;20049;-82
2022/02/24 03:49:50;;;;;;;4.75;2.45;;;2.70;99.90;;;;;;5176449;28;20052;-84
2022/02/24 03:52:23;;;;;;;4.57;2.80;;;4.40;99.90;;;;;;5159205;28;20067;-82
2022/02/24 03:54:55;;;;;;;4.13;2.70;;;3.50;99.90;;;;;;5152269;28;20433;-82
2022/02/24 03:57:28;;;;;;;5.65;2.65;;;2.90;99.90;;;;;;5189975;28;20340;-83
2022/02/24 04:00:03;;;;;;;4.90;2.33;;;3.60;99.90;;;;;;5176677;28;20060;-83
2022/02/24 04:02:44;;;;;;;3.58;2.83;;;2.80;99.90;;;;;;5183674;28;20071;-82
2022/02/24 04:05:16;;;;;;;6.40;2.80;;;2.80;99.90;;;;;;5148982;28;20052;-83
2022/02/24 04:07:50;;;;;;;4.13;2.60;;;;;;;;;;5201840;28;20056;-83
2022/02/24 04:10:22;;;;;;;4.57;2.83;;;1.90;99.90;;;;;;5179184;28;20045;-83
2022/02/24 04:12:55;;;;;;;3.25;2.30;;;2.70;99.90;;;;;;5180302;28;20318;-84
2022/02/24 04:15:27;;;;;;;4.28;2.17;;;2.70;99.90;;;;;;5200416;28;20523;-82
2022/02/24 04:18:00;;;;;;;5.68;2.83;;;2.40;99.90;;;;;;5172132;28;20045;-83
2022/02/24 04:20:33;;;;;;;3.85;2.50;;;1.40;99.90;;;;;;5169959;28;20045;-83
2022/02/24 04:23:06;;;;;;;4.37;2.77;;;2.70;99.90;;;;;;5182965;28;20753;-82
2022/02/24 04:25:38;;;;;;;4.37;2.50;;;;;;;;;;5174649;28;20049;-83
2022/02/24 04:28:14;;;;;;;4.47;2.90;;;2.60;99.90;;;;;;5189311;28;20048;-83
2022/02/24 04:30:46;;;;;;;6.05;2.90;;;1.50;99.90;;;;;;5186542;28;20046;-84
2022/02/24 04:33:19;;;;;;;3.92;2.80;;;6.20;99.90;;;;;;5163117;28;20689;-83
2022/02/24 04:35:52;;;;;;;5.18;3.00;;;3.10;99.90;;;;;;5185280;28;20060;-82
2022/02/24 04:38:25;;;;;;;4.07;2.58;;;4.80;99.90;;;;;;5195956;28;20048;-83
2022/02/24 04:40:57;;;;;;;6.40;2.80;;;;;;;;;;5199171;28;20053;-82
2022/02/24 04:43:30;;;;;;;4.78;2.70;;;;;;;;;;5194129;28;20049;-83
2022/02/24 04:46:03;;;;;;;5.97;2.40;;;2.60;99.90;;;;;;5170663;28;20045;-83
2022/02/24 04:48:36;;;;;;;5.30;2.90;;;;;;;;;;5189585;28;20041;-83
2022/02/24 04:51:09;;;;;;;7.18;3.40;;;4.20;99.90;;;;;;5192053;28;20044;-83
2022/02/24 04:53:42;;;;;;;5.07;2.50;;;5.10;99.90;;;;;;5187981;28;20759;-83
2022/02/24 04:56:14;;;;;;;5.10;3.15;;;3.00;99.90;;;;;;5189962;28;20315;-83
2022/02/24 04:58:47;;;;;;;5.22;3.13;;;2.50;99.90;;;;;;5198529;28;20064;-86
2022/02/24 05:01:20;;;;;;;4.63;3.05;;;;;;;;;;5181229;28;20064;-82
2022/02/24 05:03:53;;;;;;;4.57;3.00;;;;;;;;;;5173557;28;20048;-82
2022/02/24 05:06:26;;;;;;;4.28;2.88;;;2.10;99.90;;;;;;5191439;28;20056;-81
2022/02/24 05:08:59;;;;;;;6.03;3.28;;;;;;;;;;5187949;28;20049;-82
2022/02/24 05:11:32;;;;;;;3.88;2.67;;;;;;;;;;5169587;28;20063;-82
2022/02/24 05:14:05;;;;;;;9.20;3.33;;;;;;;;;;5186578;28;20619;-81
2022/02/24 05:16:38;;;;;;;4.22;2.92;;;2.00;99.90;;;;;;5156700;28;20060;-83
2022/02/24 05:19:11;;;;;;;5.38;2.97;;;4.70;99.90;;;;;;5176627;28;20050;-82
2022/02/24 05:21:44;;;;;;;4.63;2.75;;;;;;;;;;5149714;28;20057;-83
2022/02/24 05:24:17;;;;;;;7.27;6.00;;;;;;;;;;5191580;28;20509;-82
2022/02/24 05:26:50;;;;;;;4.78;3.38;;;;;;;;;;5192187;28;20352;-83
2022/02/24 05:29:23;;;;;;;6.60;3.40;;;;;;;;;;5190460;28;20048;-83
2022/02/24 05:31:56;;;;;;;4.35;2.40;;;;;;;;;;5167568;28;20060;-83
2022/02/24 05:34:31;;;;;;;4.43;2.28;;;;;;;;;;5184188;28;20053;-81
2022/02/24 05:37:04;;;;;;;6.83;2.33;;;;;;;;;;5188962;28;20060;-82
2022/02/24 05:39:37;;;;;;;4.28;3.05;;;;;;;;;;5144384;28;20536;-83
2022/02/24 05:42:09;;;;;;;3.23;1.80;;;2.60;99.90;;;;;;5146719;28;20049;-82
2022/02/24 05:44:42;;;;;;;3.53;2.28;;;;;;;;;;5183883;28;20041;-84
2022/02/24 05:47:20;;;;;;;5.33;2.07;;;2.70;99.90;;;;;;5170495;28;20320;-82
2022/02/24 05:49:59;;;;;;;3.95;2.35;;;5.60;99.90;;;;;;5163568;28;20634;-81
2022/02/24 05:52:32;;;;;;;6.07;2.45;;;;;;;;;;5175705;28;20045;-82
2022/02/24 05:55:08;;;;;;;3.92;2.30;;;5.80;99.90;;;;;;5185925;28;20041;-82
2022/02/24 05:57:42;;;;;;;3.25;2.10;;;2.70;99.90;;;;;;5187417;28;20049;-83
2022/02/24 06:00:15;;;;;;;3.58;1.65;;;2.30;99.90;;;;;;5150354;28;20049;-84
2022/02/24 06:02:48;;;;;;;3.28;2.13;;;;;;;;;;5134476;28;20057;-83
2022/02/24 06:05:21;;;;;;;2.63;1.90;;;;;;;;;;5128554;28;20045;-82
2022/02/24 06:07:54;;;;;;;3.93;1.87;;;;;;;;;;5134620;28;20049;-84
2022/02/24 06:10:27;;;;;;;2.70;1.83;;;;;;;;;;5144886;28;20045;-84
2022/02/24 06:13:29;;;;;;;5.17;2.00;;;2.80;99.90;;;;;;5157400;28;20060;-83
2022/02/24 06:25:13;;;;;;;5.10;1.67;;;;;;;;;;5175784;23;20064;-32
2022/02/24 06:27:45;;;;;;;4.40;3.10;;;;;;;;;;5191871;28;20057;-32
2022/02/24 06:30:18;;;;;;;5.05;2.78;;;4.90;99.90;;;;;;5167590;28;21128;-32
2022/02/24 06:32:50;;;;;;;3.45;2.30;;;;;;;;;;5170244;28;22708;-32
2022/02/24 06:35:23;;;;;;;2.80;2.08;;;5.40;99.90;;;;;;5181274;28;20053;-32
2022/02/24 06:37:58;;;;;;;3.70;2.00;;;0.10;99.90;;;;;;5181362;28;20061;-32
2022/02/24 06:40:31;;;;;;;5.30;2.20;;;5.60;99.90;;;;;;5184804;28;20053;-33
2022/02/24 06:43:03;;;;;;;3.30;2.20;;;6.10;99.90;;;;;;5194911;28;20313;-32
2022/02/24 06:45:36;;;;;;;5.82;2.13;;;3.10;99.90;;;;;;5197472;28;20587;-32
2022/02/24 06:48:08;;;;;;;5.57;2.10;;;5.80;99.90;;;;;;5185233;28;20440;-32
2022/02/24 06:50:41;;;;;;;8.00;2.20;;;3.20;99.90;;;;;;5182558;28;20048;-32
2022/02/24 06:53:14;;;;;;;9.98;2.72;;;3.20;99.90;;;;;;5189258;28;20516;-33
2022/02/24 06:55:46;;;;;;;4.50;2.38;;;3.30;99.90;;;;;;5189435;28;20060;-32
2022/02/24 06:58:19;;;;;;;4.00;2.10;;;3.40;99.90;;;;;;5196342;28;20052;-33
2022/02/24 07:00:52;;;;;;;4.70;2.63;;;5.50;99.90;;;;;;5190389;28;20341;-32
2022/02/24 07:03:25;;;;;;;8.23;2.50;;;5.40;99.90;;;;;;5192932;28;20044;-32
2022/02/24 07:05:58;;;;;;;5.07;2.35;;;2.50;99.90;;;;;;5192755;28;20207;-33
2022/02/24 07:08:30;;;;;;;3.10;2.10;;;1.50;99.90;;;;;;5188693;28;20056;-32
2022/02/24 07:11:03;;;;;;;5.35;2.08;;;2.90;99.90;;;;;;5184186;28;20052;-32
2022/02/24 07:13:36;;;;;;;6.13;2.20;;;4.20;99.90;;;;;;5183517;28;20730;-32
2022/02/24 07:16:29;;;;;;;5.30;1.67;;;;;;;;;;5176921;28;20053;-32
2022/02/24 07:19:03;;;;;;;2.33;1.63;;;4.00;99.90;;;;;;5193571;28;20408;-32
2022/02/24 07:21:35;;;;;;;;;;;4.00;99.90;;;;;;5179437;28;20041;-32
2022/02/24 07:24:08;;;;;;;3.03;1.80;;;5.70;99.90;;;;;;5193465;28;19924;-33
2022/02/24 07:26:41;;;;;;;4.13;2.10;;;;;;;;;;5182356;28;20309;-32
2022/02/24 07:29:15;;;;;;;4.93;1.70;;;;;;;;;;5196075;28;20044;-32
2022/02/24 07:31:47;;;;;;;3.00;1.70;;;3.70;99.90;;;;;;5192640;28;20421;-32
2022/02/24 07:34:19;;;;;;;3.22;1.83;;;6.10;99.90;;;;;;5178221;28;20053;-33
2022/02/24 07:36:52;;;;;;;6.03;1.58;;;4.30;99.90;;;;;;5189947;28;20045;-33
2022/02/24 07:39:25;;;;;;;7.07;1.50;;;;;;;;;;5200135;28;20064;-35
2022/02/24 07:41:58;;;;;;;2.35;1.63;;;;;;;;;;5195072;28;20052;-33
2022/02/24 07:44:32;;;;;;;5.00;1.80;;;2.80;99.90;;;;;;5176908;28;20045;-32
2022/02/24 07:47:05;;;;;;;3.40;1.67;;;4.00;99.90;;;;;;5203098;28;20561;-32
2022/02/24 07:49:38;;;;;;;6.70;1.60;;;3.70;99.90;;;;;;5198611;28;20041;-33
2022/02/24 07:52:10;;;;;;;2.40;1.63;;;5.90;99.90;;;;;;5197916;28;20044;-33
2022/02/24 07:54:43;;;;;;;2.35;1.70;;;6.40;99.90;;;;;;5196941;28;20049;-32
2022/02/24 07:57:16;;;;;;;9.30;1.90;;;;;;;;;;5193336;28;20504;-32
2022/02/24 07:59:48;;;;;;;5.07;1.70;;;5.10;99.90;;;;;;5192336;28;20452;-32
2022/02/24 08:02:22;;;;;;;5.32;2.35;;;4.40;99.30;;;;;;5179553;28;20048;-32
2022/02/24 08:04:55;;;;;;;6.05;2.05;;;6.30;99.30;;;;;;5194495;28;20301;-33
2022/02/24 08:07:28;;;;;;;5.37;2.10;;;;;;;;;;5194201;28;20045;-33
2022/02/24 08:10:01;;;;;;;7.30;1.88;;;;;;;;;;5195121;28;20295;-32
2022/02/24 08:12:40;;;;;;;5.67;2.13;;;;;;;;;;5184864;28;20420;-32
2022/02/24 08:15:14;;;;;;;3.15;2.05;;;5.50;97.10;;;;;;5195199;28;20306;-33
2022/02/24 08:17:49;;;;;;;3.47;2.00;;;4.70;97.20;;;;;;5185656;28;20052;-32
2022/02/24 08:20:21;;;;;;;9.95;1.75;;;;;;;;;;5194234;28;20435;-32
2022/02/24 08:22:58;;;;;;;4.65;2.15;;;;;;;;;;5191535;28;20051;-32
2022/02/24 08:25:31;;;;;;;2.78;1.70;;;5.80;95.10;;;;;;5183156;28;20046;-32
2022/02/24 08:28:04;;;;;;;;;;;5.80;95.30;;;;;;5196944;28;20316;-33
2022/02/24 08:30:37;;;;;;;7.07;1.73;;;;;;;;;;5195056;28;19935;-32
2022/02/24 08:33:09;;;;;;;3.10;1.93;;;9.00;96.40;;;;;;5178393;28;20056;-32
2022/02/24 08:35:41;;;;;;;2.95;1.80;;;5.40;94.30;;;;;;5176605;28;20060;-32
2022/02/24 08:38:14;;;;;;;33.70;4.38;;;5.70;94.30;;;;;;5182849;28;20037;-32
2022/02/24 08:40:47;;;;;;;17.27;3.50;;;;;;;;;;5192288;28;20056;-32
2022/02/24 08:43:22;;;;;;;6.32;2.22;;;6.20;93.80;;;;;;5192906;28;20401;-32
2022/02/24 08:45:54;;;;;;;8.13;2.10;;;9.50;94.60;;;;;;5166635;28;20048;-32
2022/02/24 08:48:27;;;;;;;6.32;1.75;;;5.10;92.80;;;;;;5198892;28;20037;-33
2022/02/24 08:51:00;;;;;;;2.25;1.58;;;7.40;93.70;;;;;;5169609;28;20067;-33
2022/02/24 08:53:35;;;;;;;2.45;1.65;;;6.80;92.70;;;;;;5197756;28;20053;-32
2022/02/24 08:56:08;;;;;;;3.53;1.70;;;6.50;92.00;;;;;;5196667;28;20045;-32
2022/02/24 08:58:40;;;;;;;4.00;1.50;;;8.00;91.50;;;;;;5193557;28;21819;-32
2022/02/24 09:01:13;;;;;;;3.70;1.50;;;;;;;;;;5196464;28;20049;-32
2022/02/24 09:03:45;;;;;;;6.65;1.98;;;8.30;91.80;;;;;;5197451;28;20046;-33
2022/02/24 09:06:18;;;;;;;6.57;2.10;;;6.50;90.80;;;;;;5194671;28;20041;-33
2022/02/24 09:08:50;;;;;;;2.67;1.20;;;6.90;90.30;;;;;;5195271;28;20568;-32
2022/02/24 09:11:24;;;;;;;4.80;2.22;;;5.50;90.00;;;;;;5186393;28;20053;-32
2022/02/24 09:13:57;;;;;;;4.00;1.40;;;8.70;90.50;;;;;;5194958;28;20050;-33
2022/02/24 09:16:30;;;;;;;3.13;1.40;;;7.10;89.20;;;;;;5189849;28;20496;-33
2022/02/24 09:19:03;;;;;;;4.43;1.60;;;10.00;90.60;;;;;;5186884;28;20057;-31
2022/02/24 09:21:36;;;;;;;3.50;1.80;;;7.30;89.00;;;;;;5185341;28;20057;-33
2022/02/24 09:24:09;;;;;;;6.05;1.65;;;7.60;89.20;;;;;;5177435;28;20052;-32
2022/02/24 09:26:42;;;;;;;6.20;1.60;;;9.60;88.80;;;;;;5194591;28;20505;-32
2022/02/24 09:29:15;;;;;;;5.40;2.15;;;9.90;89.20;;;;;;5176013;28;20068;-34
2022/02/24 09:31:47;;;;;;;4.93;2.05;;;6.50;85.50;;;;;;5196057;28;20049;-33
2022/02/24 09:34:20;;;;;;;3.35;1.92;;;7.90;87.40;;;;;;5198739;28;20499;-33
2022/02/24 09:36:53;;;;;;;5.00;2.00;;;7.80;86.10;;;;;;5201082;28;20049;-34
2022/02/24 09:39:25;;;;;;;3.30;1.80;;;7.90;85.70;;;;;;5174437;28;20052;-33
2022/02/24 09:41:58;;;;;;;6.57;1.88;;;8.00;85.40;;;;;;5202408;28;20055;-33
2022/02/24 09:44:30;;;;;;;4.40;1.42;;;9.90;86.20;;;;;;5200835;28;20045;-33
2022/02/24 09:47:04;;;;;;;2.67;1.75;;;8.30;84.10;;;;;;5202225;28;20041;-34
2022/02/24 09:49:39;;;;;;;5.13;1.73;;;7.50;81.90;;;;;;5179411;28;20060;-34
2022/02/24 09:52:11;;;;;;;3.95;1.80;;;8.60;81.70;;;;;;5203599;28;20424;-33
2022/02/24 09:54:44;;;;;;;2.13;1.33;;;8.80;82.00;;;;;;5198628;28;20619;-34
2022/02/24 09:57:17;;;;;;;5.63;1.92;;;8.90;80.90;;;;;;5186489;28;20544;-33
2022/02/24 09:59:50;;;;;;;4.72;1.80;;;9.00;80.10;;;;;;5190283;28;20033;-33
2022/02/24 10:02:24;;;;;;;2.92;1.55;;;10.60;79.70;;;;;;5195138;28;20048;-34
2022/02/24 10:05:11;;;;;;;2.72;1.35;;;7.70;78.10;;;;;;5198766;28;20049;-34
2022/02/24 10:07:46;;;;;;;3.53;1.50;;;9.40;77.80;;;;;;5185764;28;20056;-33
2022/02/24 10:10:27;;;;;;;3.53;1.60;;;12.40;78.30;;;;;;5191882;28;20045;-33
2022/02/24 10:13:11;;;;;;;3.45;1.17;;;12.20;77.40;;;;;;5190472;28;20064;-33
2022/02/24 10:16:01;;;;;;;3.13;1.27;;;9.80;74.00;;;;;;5193331;28;20053;-31
2022/02/24 10:18:34;;;;;;;2.08;1.23;;;9.90;75.00;;;;;;5191910;28;20041;-32
2022/02/24 10:21:06;;;;;;;2.55;1.10;;;9.90;74.20;;;;;;5193882;28;20497;-31
2022/02/24 10:23:39;;;;;;;2.72;1.02;;;8.20;74.60;;;;;;5189112;28;20052;-32
2022/02/24 10:26:15;;;;;;;4.25;1.40;;;10.60;75.60;;;;;;5189006;28;20041;-32
2022/02/24 10:28:50;;;;;;;3.10;1.20;;;10.30;75.10;;;;;;5191357;28;20049;-32
2022/02/24 10:31:27;;;;;;;3.47;1.30;;;10.30;74.30;;;;;;5190661;28;20049;-31
2022/02/24 10:34:05;;;;;;;2.78;1.35;;;10.50;74.70;;;;;;5193890;28;20046;-32
2022/02/24 10:36:38;;;;;;;4.80;1.15;;;14.10;75.20;;;;;;5197803;28;20041;-32
2022/02/24 10:39:21;;;;;;;5.80;1.27;;;10.70;73.50;;;;;;5198459;28;20666;-32
2022/02/24 10:42:02;;;;;;;4.97;1.10;;;10.90;71.30;;;;;;5180676;28;20846;-32
2022/02/24 10:44:37;;;;;;;5.55;1.13;;;10.10;68.60;;;;;;5197441;28;20795;-32
2022/02/24 10:47:13;;;;;;;2.33;1.10;;;11.70;69.90;;;;;;5179993;28;20048;-31
2022/02/24 10:49:49;;;;;;;2.90;1.42;;;10.70;69.10;;;;;;5185936;28;20386;-31
2022/02/24 10:52:23;;;;;;;2.00;1.23;;;11.30;70.70;;;;;;5195612;28;20052;-31
2022/02/24 10:54:56;;;;;;;2.80;1.13;;;10.70;70.60;;;;;;5195157;28;20049;-31
2022/02/24 10:57:29;;;;;;;;;;;10.80;71.00;;;;;;5198334;28;20046;-32
2022/02/24 11:00:05;;;;;;;2.00;1.30;;;10.90;71.70;;;;;;5200143;28;20329;-33
2022/02/24 11:02:37;;;;;;;3.10;1.25;;;12.70;70.80;;;;;;5187654;28;20068;-33
2022/02/24 11:05:10;;;;;;;4.43;1.40;;;10.90;69.80;;;;;;5176135;28;20056;-32
2022/02/24 11:07:42;;;;;;;6.13;1.70;;;10.90;71.50;;;;;;5175123;28;20431;-33
2022/02/24 11:10:15;;;;;;;3.63;1.45;;;11.10;71.00;;;;;;5196766;28;20041;-33
2022/02/24 11:12:48;;;;;;;3.22;1.23;;;11.30;72.30;;;;;;5186580;28;20041;-32
2022/02/24 11:15:20;;;;;;;7.53;1.60;;;11.30;70.50;;;;;;5197136;28;20056;-33
2022/02/24 11:17:53;;;;;;;6.07;1.42;;;11.30;69.40;;;;;;5200189;28;20057;-33
2022/02/24 11:20:27;;;;;;;2.85;1.58;;;11.40;71.30;;;;;;5203162;28;20045;-33
2022/02/24 11:23:00;;;;;;;7.45;1.70;;;11.50;71.10;;;;;;5199538;28;20438;-33
2022/02/24 11:25:52;;;;;;;7.05;1.95;;;11.60;70.80;;;;;;5197263;28;20064;-33
2022/02/24 11:28:31;;;;;;;5.50;1.80;;;11.60;71.20;;;;;;5200089;28;20056;-33
2022/02/24 11:31:16;;;;;;;7.75;1.70;;;13.50;70.70;;;;;;5199998;28;20056;-33
2022/02/24 11:33:51;;;;;;;5.38;1.75;;;13.20;69.70;;;;;;5192275;28;20440;-33
2022/02/24 11:36:24;;;;;;;5.32;1.75;;;11.90;69.80;;;;;;5190189;28;20046;-33
2022/02/24 11:39:08;;;;;;;2.97;1.73;;;11.80;68.90;;;;;;5190499;28;20055;-33
2022/02/24 11:41:51;;;;;;;6.15;2.15;;;11.80;68.20;;;;;;5189341;28;20040;-33
2022/02/24 11:44:32;;;;;;;3.95;1.95;;;11.80;69.30;;;;;;5201656;28;20041;-34
2022/02/24 11:47:10;;;;;;;4.10;1.63;;;11.90;68.50;;;;;;5198550;28;20059;-33
2022/02/24 11:49:59;;;;;;;3.78;1.83;;;11.90;67.20;;;;;;5183002;28;20504;-33
2022/02/24 11:52:44;;;;;;;2.03;1.45;;;11.90;65.90;;;;;;5196492;28;20421;-34
2022/02/24 11:55:49;;;;;;;2.58;1.58;;;12.00;66.80;;;;;;5188941;28;20041;-33
2022/02/24 11:58:46;;;;;;;9.10;1.75;;;12.00;68.60;;;;;;5200260;28;20045;-33
2022/02/24 12:01:35;;;;;;;2.45;1.45;;;12.10;65.40;;;;;;5182167;28;20048;-33
2022/02/24 12:04:20;;;;;;;2.28;1.40;;;12.10;63.80;;;;;;5201539;28;20045;-33
2022/02/24 12:06:57;;;;;;;3.83;1.80;;;12.10;64.20;;;;;;5200464;28;20528;-33
2022/02/24 12:09:32;;;;;;;4.72;1.40;;;12.20;65.90;;;;;;5189670;28;20067;-32
2022/02/24 12:12:26;;;;;;;2.38;1.35;;;12.20;66.60;;;;;;5194842;28;20049;-33
2022/02/24 12:15:01;;;;;;;3.60;1.80;;;11.50;64.60;;;;;;5197734;28;20482;-33
2022/02/24 12:17:49;;;;;;;2.33;1.30;;;12.20;65.90;;;;;;5190330;28;20053;-33
2022/02/24 12:20:24;;;;;;;1.65;1.20;;;12.20;63.00;;;;;;5196706;28;20041;-34
2022/02/24 12:22:57;;;;;;;7.60;1.48;;;12.30;64.10;;;;;;5158588;28;20045;-33
2022/02/24 12:25:30;;;;;;;1.85;1.40;;;12.20;64.10;;;;;;5191446;28;20046;-33
2022/02/24 12:28:05;;;;;;;3.28;1.20;;;12.20;63.90;;;;;;5175956;28;20045;-33
2022/02/24 12:30:44;;;;;;;3.20;1.35;;;12.30;63.20;;;;;;5195036;28;20253;-34
2022/02/24 12:33:18;;;;;;;3.38;1.33;;;12.40;62.50;;;;;;5177380;28;20497;-33
2022/02/24 12:35:51;;;;;;;1.77;1.27;;;12.30;61.20;;;;;;5190607;28;20064;-34
2022/02/24 12:38:23;;;;;;;3.17;1.55;;;12.40;60.90;;;;;;5189907;28;20049;-33
2022/02/24 12:40:56;;;;;;;8.68;2.08;;;12.40;61.80;;;;;;5194011;28;20040;-33
2022/02/24 12:43:28;;;;;;;3.28;1.30;;;12.40;61.70;;;;;;5197955;28;20350;-33
2022/02/24 12:46:02;;;;;;;2.28;1.15;;;12.40;60.80;;;;;;5190689;28;20052;-33
2022/02/24 12:48:35;;;;;;;4.78;1.70;;;12.40;60.10;;;;;;5195772;28;20044;-34
2022/02/24 12:51:10;;;;;;;2.83;1.33;;;12.40;59.50;;;;;;5197699;28;20053;-33
2022/02/24 12:53:44;;;;;;;2.33;1.20;;;12.50;59.40;;;;;;5192173;28;20048;-33
2022/02/24 12:56:17;;;;;;;4.60;1.00;;;12.50;60.30;;;;;;5181068;28;20401;-33
2022/02/24 12:58:50;;;;;;;;;;;12.50;59.90;;;;;;5191462;28;20053;-33
2022/02/24 13:01:23;;;;;;;2.50;1.23;;;12.60;58.50;;;;;;5190678;28;19925;-32
2022/02/24 13:04:02;;;;;;;2.78;1.10;;;12.50;57.90;;;;;;5196589;28;20261;-33
2022/02/24 13:06:35;;;;;;;3.97;2.05;;;12.50;57.90;;;;;;5188907;28;20060;-33
2022/02/24 13:12:05;;;;;;;2.05;1.20;;;12.50;57.00;;;;;;5186315;28;20048;-34
2022/02/24 13:14:38;;;;;;;1.65;1.05;;;12.50;57.30;;;;;;5182804;28;20595;-33
2022/02/24 13:17:20;;;;;;;1.77;1.10;;;12.60;56.20;;;;;;5179154;28;20040;-33
2022/02/24 13:19:54;;;;;;;3.70;1.15;;;12.60;55.90;;;;;;5172890;28;20045;-33
2022/02/24 13:22:27;;;;;;;2.47;1.23;;;12.70;58.00;;;;;;5182649;28;20045;-33
2022/02/24 13:24:59;;;;;;;8.18;1.80;;;12.60;59.90;;;;;;5182313;28;20061;-33
2022/02/24 13:27:32;;;;;;;2.08;1.13;;;12.60;58.70;;;;;;5174489;28;20052;-33
2022/02/24 13:30:12;;;;;;;2.83;1.33;;;12.60;58.60;;;;;;5180328;28;20556;-34
2022/02/24 13:32:44;;;;;;;6.45;1.50;;;12.60;58.40;;;;;;5194111;28;20054;-33
2022/02/24 13:35:17;;;;;;;4.18;1.67;;;12.60;59.30;;;;;;5196116;28;20387;-33
2022/02/24 13:37:51;;;;;;;5.00;1.40;;;12.60;59.70;;;;;;5186931;28;20065;-33
2022/02/24 13:40:26;;;;;;;3.67;1.65;;;12.60;60.30;;;;;;5187049;28;20048;-33
2022/02/24 13:43:01;;;;;;;3.50;1.38;;;12.70;59.50;;;;;;5196401;28;20489;-34
2022/02/24 13:45:33;;;;;;;3.40;1.38;;;12.70;59.50;;;;;;5195777;28;20052;-33
2022/02/24 13:48:12;;;;;;;2.25;1.58;;;12.70;59.50;;;;;;5195777;28;20836;-33
2022/02/24 13:50:46;;;;;;;1.40;1.20;;;12.70;59.00;;;;;;5178747;28;20052;-33
2022/02/24 13:53:27;;;;;;;4.28;1.70;;;12.70;59.00;;;;;;5197027;28;20050;-33
2022/02/24 13:56:03;;;;;;;6.03;1.88;;;12.70;59.70;;;;;;5190276;28;20420;-33
2022/02/24 13:58:41;;;;;;;3.15;1.48;;;12.70;59.50;;;;;;5178846;28;20049;-33
2022/02/24 14:01:22;;;;;;;2.50;1.30;;;12.70;58.50;;;;;;5193547;28;20057;-33
2022/02/24 14:03:57;;;;;;;4.32;1.55;;;12.70;58.60;;;;;;5194569;28;20050;-33
2022/02/24 14:06:42;;;;;;;4.50;2.05;;;12.70;59.10;;;;;;5196172;28;20049;-33
2022/02/24 14:09:25;;;;;;;3.10;1.77;;;12.70;60.30;;;;;;5197339;28;20417;-33
2022/02/24 14:11:57;;;;;;;6.30;1.63;;;12.70;59.70;;;;;;5196823;28;20410;-33